Terminal Aerodrome Forecast
Issued by NWS Riverton, WY

Home | Current Version | Previous Version | Text Only | Print | Product List | Glossary On
Versions: 1 2 3 4 5 6 7 8 9 10 11 12 13 14 15 16
000
FTUS45 KRIW 251700
TAFRIW
TAF
KRIW 251720Z 2518/2618 34006KT P6SM -SHRA BKN028
     FM252000 28007KT P6SM SCT030 BKN060
     FM260500 31007KT P6SM VCFG FEW004 SCT060=

USA.gov is the U.S. government's official web portal to all federal, state and local government web resources and services.